Time;durP1;ratioP1;P1;durP2;ratioP2;P2;SDS_P1;SDS_P2;PMS_P1;PMS_P2;Temp;Humidity;BMP_temperature;BMP_pressure;BME280_temperature;BME280_humidity;BME280_pressure;Samples;Min_cycle;Max_cycle;Signal;HPM_P1;HPM_P2
2024/01/25 00:02:16;;;;;;;1999.90;999.90;;;7.60;84.60;;;;;;5063494;28;20036;-77
2024/01/25 00:04:42;;;;;;;1999.90;999.90;;;7.60;84.50;;;;;;5082637;28;20098;-76
2024/01/25 00:07:10;;;;;;;1999.90;999.90;;;7.60;84.70;;;;;;5068351;28;20491;-76
2024/01/25 00:09:36;;;;;;;1999.90;999.90;;;7.60;84.70;;;;;;5067326;28;20032;-77
2024/01/25 00:12:02;;;;;;;1999.90;999.90;;;7.70;84.00;;;;;;5082519;28;20025;-75
2024/01/25 00:14:27;;;;;;;1999.90;999.90;;;7.70;83.80;;;;;;5065186;28;20406;-77
2024/01/25 00:16:53;;;;;;;1999.90;999.90;;;7.80;83.30;;;;;;5067127;28;20101;-77
2024/01/25 00:19:19;;;;;;;1999.90;999.90;;;7.80;83.40;;;;;;5068436;28;20027;-78
2024/01/25 00:21:44;;;;;;;1999.90;999.90;;;7.70;83.80;;;;;;5066446;28;20094;-76
2024/01/25 00:24:14;;;;;;;1999.90;999.90;;;7.80;83.50;;;;;;5050342;28;20035;-76
2024/01/25 00:26:39;;;;;;;1999.90;999.90;;;7.80;83.90;;;;;;5065337;28;20043;-77
2024/01/25 00:29:05;;;;;;;1999.90;999.90;;;7.70;84.10;;;;;;5067443;28;20248;-76
2024/01/25 00:31:31;;;;;;;1999.90;999.90;;;7.80;83.80;;;;;;5063754;28;20043;-78
2024/01/25 00:34:01;;;;;;;1999.90;999.90;;;7.90;83.20;;;;;;5066031;28;20024;-78
2024/01/25 00:36:27;;;;;;;1999.90;999.90;;;7.90;83.70;;;;;;5061372;28;20191;-78
2024/01/25 00:38:53;;;;;;;1999.90;999.90;;;7.90;83.40;;;;;;5060224;28;20422;-78
2024/01/25 00:41:19;;;;;;;1999.90;999.90;;;7.90;83.50;;;;;;5066979;28;20060;-76
2024/01/25 00:43:46;;;;;;;1999.90;999.90;;;7.90;83.40;;;;;;5062795;28;20067;-78
2024/01/25 00:46:12;;;;;;;1999.90;999.90;;;7.90;83.60;;;;;;5057182;28;20044;-79
2024/01/25 00:48:40;;;;;;;1999.90;999.90;;;7.90;83.40;;;;;;5067084;28;20525;-78
2024/01/25 00:51:07;;;;;;;1999.90;999.90;;;7.80;84.00;;;;;;5061625;28;20060;-78
2024/01/25 00:53:33;;;;;;;1999.90;999.90;;;7.80;84.20;;;;;;5067187;28;20103;-79
2024/01/25 00:55:59;;;;;;;1999.90;999.90;;;7.90;84.10;;;;;;5066288;28;20669;-77
2024/01/25 00:58:25;;;;;;;1999.90;999.90;;;7.80;84.10;;;;;;5066799;28;20094;-77
2024/01/25 01:00:51;;;;;;;1999.90;999.90;;;7.80;84.10;;;;;;5053986;28;20036;-78
2024/01/25 01:03:19;;;;;;;1999.90;999.90;;;7.70;84.80;;;;;;5080428;28;20051;-78
2024/01/25 01:05:45;;;;;;;1999.90;999.90;;;7.80;84.70;;;;;;5076870;28;20063;-78
2024/01/25 01:08:11;;;;;;;1999.90;999.90;;;7.80;84.80;;;;;;5076576;28;20485;-77
2024/01/25 01:10:37;;;;;;;1999.90;999.90;;;7.80;84.80;;;;;;5076884;28;20131;-79
2024/01/25 01:13:03;;;;;;;1999.90;999.90;;;7.80;84.80;;;;;;5059910;28;20538;-78
2024/01/25 01:15:29;;;;;;;1999.90;999.90;;;7.80;84.40;;;;;;5048492;28;20036;-79
2024/01/25 01:17:54;;;;;;;1999.90;999.90;;;7.80;84.50;;;;;;5063727;28;20430;-80
2024/01/25 01:20:20;;;;;;;1999.90;999.90;;;7.80;84.70;;;;;;5061632;28;20402;-78
2024/01/25 01:22:46;;;;;;;1999.90;999.90;;;7.80;84.80;;;;;;5066002;28;20061;-78
2024/01/25 01:25:11;;;;;;;1999.90;999.90;;;7.80;85.00;;;;;;5058671;28;20033;-78
2024/01/25 01:27:37;;;;;;;1999.90;999.90;;;7.80;85.50;;;;;;5064517;28;20024;-78
2024/01/25 01:30:04;;;;;;;1999.90;999.90;;;7.80;85.50;;;;;;5065334;28;20570;-78
2024/01/25 01:32:29;;;;;;;1999.90;999.90;;;7.70;85.80;;;;;;5064571;28;20051;-77
2024/01/25 01:34:55;;;;;;;1999.90;999.90;;;7.80;85.80;;;;;;5049410;28;20498;-77
2024/01/25 01:37:21;;;;;;;1999.90;999.90;;;7.80;85.50;;;;;;5066814;28;20072;-78
2024/01/25 01:39:46;;;;;;;1999.90;999.90;;;7.80;85.80;;;;;;5047719;28;20078;-77
2024/01/25 01:42:12;;;;;;;1999.90;999.90;;;7.80;85.40;;;;;;5059212;28;20040;-78
2024/01/25 01:44:39;;;;;;;1999.90;999.90;;;7.90;84.70;;;;;;5064932;28;20035;-77
2024/01/25 01:47:05;;;;;;;1999.90;999.90;;;7.80;85.00;;;;;;5066310;28;20031;-78
2024/01/25 01:49:31;;;;;;;1999.90;999.90;;;7.80;84.70;;;;;;5062716;28;20041;-77
2024/01/25 01:51:56;;;;;;;1999.90;999.90;;;7.70;85.10;;;;;;5044750;28;20036;-77
2024/01/25 01:54:23;;;;;;;1999.90;999.90;;;7.70;85.20;;;;;;5061379;28;20041;-77
2024/01/25 01:56:49;;;;;;;1999.90;999.90;;;7.80;85.10;;;;;;5066941;28;20139;-75
2024/01/25 01:59:15;;;;;;;1999.90;999.90;;;7.80;85.80;;;;;;5066977;28;20052;-77
2024/01/25 02:01:41;;;;;;;1999.90;999.90;;;7.80;85.80;;;;;;5067074;28;20535;-78
2024/01/25 02:04:07;;;;;;;1999.90;999.90;;;7.70;86.30;;;;;;5063423;28;20036;-78
2024/01/25 02:06:33;;;;;;;1999.90;999.90;;;7.70;86.60;;;;;;5066150;28;20037;-78
2024/01/25 02:08:59;;;;;;;1999.90;999.90;;;7.60;86.80;;;;;;5064406;28;20481;-77
2024/01/25 02:11:25;;;;;;;1999.90;999.90;;;7.60;86.70;;;;;;5064861;28;20044;-77
2024/01/25 02:13:51;;;;;;;1999.90;999.90;;;7.70;86.80;;;;;;5059832;28;20021;-78
2024/01/25 02:16:17;;;;;;;1999.90;999.90;;;7.60;86.70;;;;;;5063607;28;20044;-77
2024/01/25 02:18:43;;;;;;;1999.90;999.90;;;7.60;86.70;;;;;;5066060;28;20029;-77
2024/01/25 02:21:09;;;;;;;1999.90;999.90;;;7.60;86.80;;;;;;5065812;28;20543;-78
2024/01/25 02:23:34;;;;;;;1999.90;999.90;;;7.60;88.20;;;;;;5047140;28;20033;-76
2024/01/25 02:26:00;;;;;;;1999.90;999.90;;;7.50;88.80;;;;;;5065254;28;20494;-75
2024/01/25 02:28:26;;;;;;;1999.90;999.90;;;7.50;89.50;;;;;;5069793;28;20410;-77
2024/01/25 02:30:52;;;;;;;1999.90;999.90;;;7.40;90.30;;;;;;5063511;28;20024;-77
2024/01/25 02:33:18;;;;;;;1999.90;999.90;;;7.30;90.50;;;;;;5082174;28;20028;-77
2024/01/25 02:35:43;;;;;;;1999.90;999.90;;;7.30;90.70;;;;;;5061685;28;20024;-76
2024/01/25 02:38:09;;;;;;;1999.90;999.90;;;7.30;90.80;;;;;;5069178;28;20024;-76
2024/01/25 02:40:35;;;;;;;1999.90;999.90;;;7.20;90.80;;;;;;5068263;28;20025;-76
2024/01/25 02:43:00;;;;;;;1999.90;999.90;;;7.20;90.90;;;;;;5065319;28;20056;-78
2024/01/25 02:45:26;;;;;;;1999.90;999.90;;;7.20;91.00;;;;;;5053037;28;20042;-78
2024/01/25 02:47:52;;;;;;;1999.90;999.90;;;7.20;91.00;;;;;;5068669;28;20150;-79
2024/01/25 02:50:18;;;;;;;1999.90;999.90;;;7.20;91.00;;;;;;5064981;28;20098;-76
2024/01/25 02:52:43;;;;;;;1999.90;999.90;;;7.20;90.90;;;;;;5075687;28;20564;-76
2024/01/25 02:55:09;;;;;;;1999.90;999.90;;;7.10;90.50;;;;;;5049029;28;20410;-78
2024/01/25 02:57:34;;;;;;;1999.90;999.90;;;7.10;90.70;;;;;;5067911;28;20071;-77
2024/01/25 03:00:00;;;;;;;1999.90;999.90;;;7.20;90.90;;;;;;5069423;28;20669;-76
2024/01/25 03:02:26;;;;;;;1999.90;999.90;;;7.30;90.40;;;;;;5069149;28;20090;-76
2024/01/25 03:04:52;;;;;;;1999.90;999.90;;;7.30;90.30;;;;;;5065204;28;20721;-77
2024/01/25 03:07:17;;;;;;;1999.90;999.90;;;7.40;90.00;;;;;;5065408;28;20032;-78
2024/01/25 03:09:43;;;;;;;1999.90;999.90;;;7.50;89.10;;;;;;5067779;28;20029;-80
2024/01/25 03:12:09;;;;;;;1999.90;999.90;;;7.40;88.80;;;;;;5067976;28;20452;-78
2024/01/25 03:14:35;;;;;;;1999.90;999.90;;;7.40;88.80;;;;;;5067281;28;20107;-79
2024/01/25 03:17:01;;;;;;;1999.90;999.90;;;7.50;88.00;;;;;;5067198;28;20032;-76
2024/01/25 03:19:27;;;;;;;1999.90;999.90;;;7.50;87.90;;;;;;5065932;28;20486;-75
2024/01/25 03:21:54;;;;;;;1999.90;999.90;;;7.60;87.90;;;;;;5064355;28;20017;-77
2024/01/25 03:24:20;;;;;;;1999.90;999.90;;;7.50;88.00;;;;;;5068777;28;20077;-79
2024/01/25 03:26:46;;;;;;;1999.90;999.90;;;7.50;88.40;;;;;;5066371;28;20029;-76
2024/01/25 03:29:11;;;;;;;1999.90;999.90;;;7.40;88.70;;;;;;5067582;28;20493;-77
2024/01/25 03:31:37;;;;;;;1999.90;999.90;;;7.50;88.20;;;;;;5067370;28;20037;-77
2024/01/25 03:34:03;;;;;;;1999.90;999.90;;;7.50;88.60;;;;;;5067665;28;20502;-79
2024/01/25 03:36:29;;;;;;;1999.90;999.90;;;7.40;89.10;;;;;;5063958;28;20036;-76
2024/01/25 03:38:54;;;;;;;1999.90;999.90;;;7.40;89.10;;;;;;5068395;28;20392;-77
2024/01/25 03:41:22;;;;;;;1999.90;999.90;;;7.50;88.90;;;;;;5066691;28;20032;-76
2024/01/25 03:43:48;;;;;;;1999.90;999.90;;;7.40;89.00;;;;;;5065168;28;20498;-77
2024/01/25 03:46:14;;;;;;;1999.90;999.90;;;7.40;88.60;;;;;;5052267;28;20028;-77
2024/01/25 03:48:39;;;;;;;1999.90;999.90;;;7.20;88.70;;;;;;5068754;28;20035;-77
2024/01/25 03:51:05;;;;;;;1999.90;999.90;;;7.30;89.40;;;;;;5067911;28;20037;-77
2024/01/25 03:53:31;;;;;;;1999.90;999.90;;;7.20;90.00;;;;;;5065286;28;20028;-75
2024/01/25 03:55:57;;;;;;;1999.90;999.90;;;7.30;90.20;;;;;;5066941;28;20532;-78
2024/01/25 03:58:22;;;;;;;1999.90;999.90;;;7.20;90.40;;;;;;5065602;28;20439;-76
2024/01/25 04:00:48;;;;;;;1999.90;999.90;;;7.20;90.30;;;;;;5064734;28;20057;-76
2024/01/25 04:03:14;;;;;;;1999.90;999.90;;;7.30;90.10;;;;;;5064041;28;20029;-77
2024/01/25 04:05:39;;;;;;;1999.90;999.90;;;7.30;90.30;;;;;;5065317;28;20056;-77
2024/01/25 04:08:06;;;;;;;1999.90;999.90;;;7.20;90.40;;;;;;5066080;28;20032;-77
2024/01/25 04:10:31;;;;;;;1999.90;999.90;;;7.20;90.60;;;;;;5062975;28;20029;-79
2024/01/25 04:12:57;;;;;;;1999.90;999.90;;;7.20;90.40;;;;;;5063157;28;20027;-79
2024/01/25 04:15:23;;;;;;;1999.90;999.90;;;7.30;90.10;;;;;;5063213;28;20036;-78
2024/01/25 04:17:49;;;;;;;1999.90;999.90;;;7.30;90.20;;;;;;5065679;28;20452;-77
2024/01/25 04:20:15;;;;;;;1999.90;999.90;;;7.30;90.10;;;;;;5059427;28;20398;-78
2024/01/25 04:22:41;;;;;;;1999.90;999.90;;;7.30;90.30;;;;;;5061300;28;20032;-77
2024/01/25 04:25:07;;;;;;;1999.90;999.90;;;7.20;91.10;;;;;;5082297;28;20044;-77
2024/01/25 04:27:33;;;;;;;1999.90;999.90;;;7.20;91.70;;;;;;5068768;28;20059;-76
2024/01/25 04:29:58;;;;;;;1999.90;999.90;;;7.10;92.50;;;;;;5052333;28;20463;-77
2024/01/25 04:32:24;;;;;;;1999.90;999.90;;;7.00;93.20;;;;;;5059503;28;20033;-78
2024/01/25 04:34:50;;;;;;;1999.90;999.90;;;7.00;93.70;;;;;;5062833;28;20035;-79
2024/01/25 04:37:15;;;;;;;1999.90;999.90;;;6.90;95.00;;;;;;5068707;28;20440;-77
2024/01/25 04:39:41;;;;;;;1999.90;999.90;;;6.90;94.40;;;;;;5066276;28;20036;-76
2024/01/25 04:42:08;;;;;;;1999.90;999.90;;;6.80;96.10;;;;;;5065565;28;20421;-79
2024/01/25 04:44:33;;;;;;;1999.90;999.90;;;6.80;96.20;;;;;;5065040;28;20032;-78
2024/01/25 04:47:00;;;;;;;1999.90;999.90;;;6.70;97.20;;;;;;5063647;28;20043;-78
2024/01/25 04:49:26;;;;;;;1999.90;999.90;;;6.50;98.50;;;;;;5067696;28;20135;-80
2024/01/25 04:51:51;;;;;;;1999.90;999.90;;;6.40;99.00;;;;;;5067018;28;20449;-77
2024/01/25 04:54:17;;;;;;;1999.90;999.90;;;6.30;99.80;;;;;;5064898;28;20082;-78
2024/01/25 04:56:44;;;;;;;1999.90;999.90;;;6.40;99.90;;;;;;5067339;28;20064;-79
2024/01/25 04:59:10;;;;;;;1999.90;999.90;;;6.40;99.90;;;;;;5066398;28;20033;-76
2024/01/25 05:01:36;;;;;;;1999.90;999.90;;;6.90;99.90;;;;;;5060254;28;20039;-78
2024/01/25 05:04:03;;;;;;;1999.90;999.90;;;7.40;99.90;;;;;;5050960;28;20028;-75
2024/01/25 05:06:29;;;;;;;1999.90;999.90;;;7.40;99.90;;;;;;5067324;28;20072;-77
2024/01/25 05:08:54;;;;;;;1999.90;999.90;;;7.50;99.90;;;;;;5067841;28;20056;-78
2024/01/25 05:11:20;;;;;;;1999.90;999.90;;;7.40;99.90;;;;;;5066216;28;20430;-79
2024/01/25 05:13:45;;;;;;;1999.90;999.90;;;7.40;99.90;;;;;;5064874;28;20529;-74
2024/01/25 05:16:11;;;;;;;1999.90;999.90;;;7.40;99.90;;;;;;5067282;28;20078;-78
2024/01/25 05:18:37;;;;;;;1999.90;999.90;;;7.50;99.90;;;;;;5061510;28;20033;-79
2024/01/25 05:21:03;;;;;;;1999.90;999.90;;;7.50;99.90;;;;;;5066628;28;20040;-78
2024/01/25 05:23:28;;;;;;;1999.90;999.90;;;7.50;99.90;;;;;;5062346;28;20499;-76
2024/01/25 05:25:54;;;;;;;1999.90;999.90;;;7.60;99.90;;;;;;5072497;28;20040;-76
2024/01/25 05:28:20;;;;;;;1999.90;999.90;;;7.50;99.90;;;;;;5078208;28;20459;-75
2024/01/25 05:30:45;;;;;;;1999.90;999.90;;;7.60;99.90;;;;;;5074226;28;20036;-77
2024/01/25 05:33:11;;;;;;;1999.90;999.90;;;7.50;99.90;;;;;;5053453;28;20055;-78
2024/01/25 05:35:37;;;;;;;1999.90;999.90;;;7.50;99.90;;;;;;5064115;28;20036;-77
2024/01/25 05:38:02;;;;;;;1999.90;999.90;;;7.50;99.90;;;;;;5060958;28;20493;-78
2024/01/25 05:40:28;;;;;;;1999.90;999.90;;;7.50;99.90;;;;;;5078734;28;20044;-77
2024/01/25 05:42:54;;;;;;;1999.90;999.90;;;7.60;99.90;;;;;;5065572;28;20036;-76
2024/01/25 05:45:21;;;;;;;1999.90;999.90;;;7.50;99.90;;;;;;5066190;28;20039;-77
2024/01/25 05:47:47;;;;;;;1999.90;999.90;;;7.50;99.90;;;;;;5079482;28;20154;-78
2024/01/25 05:50:13;;;;;;;1999.90;999.90;;;7.50;99.90;;;;;;5059087;28;20059;-77
2024/01/25 05:52:38;;;;;;;1999.90;999.90;;;7.50;99.90;;;;;;5048779;28;20060;-76
2024/01/25 05:55:08;;;;;;;1999.90;999.90;;;7.50;99.90;;;;;;5046878;28;20594;-76
2024/01/25 05:57:36;;;;;;;1999.90;999.90;;;7.50;99.90;;;;;;5061565;28;20526;-78
2024/01/25 06:00:02;;;;;;;1999.90;999.90;;;7.50;99.90;;;;;;5062587;28;20060;-79
2024/01/25 06:02:28;;;;;;;1999.90;999.90;;;7.40;99.90;;;;;;5043250;28;20763;-77
2024/01/25 06:04:54;;;;;;;1999.90;999.90;;;7.40;99.90;;;;;;5061444;28;20048;-77
2024/01/25 06:07:20;;;;;;;1999.90;999.90;;;7.40;99.90;;;;;;5063702;28;20028;-77
2024/01/25 06:09:46;;;;;;;1999.90;999.90;;;7.40;99.90;;;;;;5048774;28;20035;-76
2024/01/25 06:12:12;;;;;;;1999.90;999.90;;;7.30;99.90;;;;;;5065900;28;20463;-77
2024/01/25 06:14:37;;;;;;;1999.90;999.90;;;7.40;99.90;;;;;;5061155;28;20078;-76
2024/01/25 06:17:03;;;;;;;1999.90;999.90;;;7.30;99.90;;;;;;5065833;28;20052;-79
2024/01/25 06:19:29;;;;;;;1999.90;999.90;;;7.30;99.90;;;;;;5063024;28;20044;-78
2024/01/25 06:21:55;;;;;;;1999.90;999.90;;;7.30;99.90;;;;;;5066370;28;20035;-79
2024/01/25 06:24:20;;;;;;;1999.90;999.90;;;7.30;99.90;;;;;;5044983;28;20625;-79
2024/01/25 06:26:46;;;;;;;1999.90;999.90;;;7.30;99.90;;;;;;5048475;28;20024;-80
2024/01/25 06:29:12;;;;;;;1999.90;999.90;;;7.20;99.90;;;;;;5077903;28;20478;-77
2024/01/25 06:31:44;;;;;;;1999.90;999.90;;;7.10;99.90;;;;;;5066522;28;20033;-78
2024/01/25 06:34:09;;;;;;;1999.90;999.90;;;7.00;99.90;;;;;;5061388;28;20034;-79
2024/01/25 06:36:35;;;;;;;1999.90;999.90;;;7.00;99.90;;;;;;5063334;28;20111;-78
2024/01/25 06:39:01;;;;;;;1999.90;999.90;;;7.00;99.90;;;;;;5064325;28;20055;-79
2024/01/25 06:41:26;;;;;;;1999.90;999.90;;;7.10;99.90;;;;;;5077992;28;20044;-78
2024/01/25 06:43:52;;;;;;;1999.90;999.90;;;7.10;99.90;;;;;;5062020;28;20513;-78
2024/01/25 06:46:18;;;;;;;1999.90;999.90;;;7.20;99.90;;;;;;5064750;28;20028;-79
2024/01/25 06:48:44;;;;;;;1999.90;999.90;;;7.10;99.90;;;;;;5065424;28;20047;-80
2024/01/25 06:51:09;;;;;;;1999.90;999.90;;;7.10;99.90;;;;;;5065162;28;20035;-79
2024/01/25 06:53:35;;;;;;;1999.90;999.90;;;7.10;99.90;;;;;;5062160;28;20036;-79
2024/01/25 06:56:01;;;;;;;1999.90;999.90;;;7.10;99.90;;;;;;5064169;28;20040;-78
2024/01/25 06:58:26;;;;;;;1999.90;999.90;;;7.00;99.90;;;;;;5062697;28;20051;-79
2024/01/25 07:00:52;;;;;;;1999.90;999.90;;;7.10;99.90;;;;;;5061845;28;20085;-80
2024/01/25 07:03:18;;;;;;;1999.90;999.90;;;7.00;99.90;;;;;;5062493;28;20033;-79
2024/01/25 07:05:44;;;;;;;1999.90;999.90;;;7.00;99.90;;;;;;5063562;28;20055;-77
2024/01/25 07:08:13;;;;;;;1999.90;999.90;;;7.00;99.90;;;;;;5061971;28;20478;-78
2024/01/25 07:10:39;;;;;;;1999.90;999.90;;;7.00;99.90;;;;;;5063021;28;20029;-78
2024/01/25 07:13:05;;;;;;;1999.90;999.90;;;6.90;99.90;;;;;;5067373;28;20028;-79
2024/01/25 07:15:30;;;;;;;1999.90;999.90;;;7.00;99.90;;;;;;5069324;28;20033;-78
2024/01/25 07:17:56;;;;;;;1999.90;999.90;;;6.80;99.90;;;;;;5083439;28;20128;-78
2024/01/25 07:20:22;;;;;;;1999.90;999.90;;;6.70;99.90;;;;;;5068647;28;20498;-78
2024/01/25 07:22:47;;;;;;;1999.90;999.90;;;6.60;99.90;;;;;;5067547;28;20042;-78
2024/01/25 07:25:13;;;;;;;1999.90;999.90;;;6.70;99.90;;;;;;5062893;28;20045;-77
2024/01/25 07:27:39;;;;;;;1999.90;999.90;;;6.70;99.90;;;;;;5069212;28;20061;-77
2024/01/25 07:30:05;;;;;;;1999.90;999.90;;;6.60;99.90;;;;;;5067822;28;20032;-78
2024/01/25 07:32:32;;;;;;;1999.90;999.90;;;6.60;99.90;;;;;;5067949;28;20498;-81
2024/01/25 07:34:58;;;;;;;1999.90;999.90;;;6.50;99.90;;;;;;5067474;28;20032;-77
2024/01/25 07:37:23;;;;;;;1999.90;999.90;;;6.40;99.90;;;;;;5052146;28;20043;-79
2024/01/25 07:39:49;;;;;;;1999.90;999.90;;;6.30;99.90;;;;;;5061971;28;20039;-78
2024/01/25 07:42:15;;;;;;;1999.90;999.90;;;6.30;99.90;;;;;;5068509;28;20119;-78
2024/01/25 07:44:40;;;;;;;1999.90;999.90;;;6.20;99.90;;;;;;5066327;28;20093;-77
2024/01/25 07:47:06;;;;;;;1999.90;999.90;;;6.20;99.90;;;;;;5067670;28;20036;-79
2024/01/25 07:49:32;;;;;;;1999.90;999.90;;;6.10;99.90;;;;;;5051764;28;20033;-79
2024/01/25 07:51:57;;;;;;;1999.90;999.90;;;6.00;99.90;;;;;;5047861;28;20040;-80
2024/01/25 07:54:24;;;;;;;1999.90;999.90;;;6.00;99.90;;;;;;5052059;28;20036;-78
2024/01/25 07:56:50;;;;;;;1999.90;999.90;;;5.90;99.90;;;;;;5066308;28;20033;-78
2024/01/25 07:59:16;;;;;;;1999.90;999.90;;;5.80;99.90;;;;;;5065842;28;20111;-77
2024/01/25 08:01:42;;;;;;;1999.90;999.90;;;5.70;99.90;;;;;;5066337;28;20035;-78
2024/01/25 08:04:07;;;;;;;1999.90;999.90;;;5.60;99.90;;;;;;5076801;28;20039;-79
2024/01/25 08:06:33;;;;;;;1999.90;999.90;;;5.50;99.90;;;;;;5066296;28;20044;-79
2024/01/25 08:08:59;;;;;;;1999.90;999.90;;;5.40;99.90;;;;;;5068473;28;20055;-78
2024/01/25 08:11:25;;;;;;;1999.90;999.90;;;5.40;99.90;;;;;;5063133;28;20115;-77
2024/01/25 08:13:51;;;;;;;1999.90;999.90;;;5.40;99.90;;;;;;5064306;28;20105;-76
2024/01/25 08:16:20;;;;;;;1999.90;999.90;;;5.50;99.90;;;;;;5051854;28;20691;-77
2024/01/25 08:18:47;;;;;;;1999.90;999.90;;;5.50;99.90;;;;;;5068070;28;20040;-78
2024/01/25 08:21:13;;;;;;;1999.90;999.90;;;5.50;99.90;;;;;;5066064;28;20025;-79
2024/01/25 08:23:39;;;;;;;1999.90;999.90;;;5.50;99.90;;;;;;5070508;28;20374;-77
2024/01/25 08:26:09;;;;;;;1999.90;999.90;;;5.40;99.90;;;;;;5070645;28;20029;-78
2024/01/25 08:28:36;;;;;;;1999.90;999.90;;;5.50;99.90;;;;;;5067262;28;20024;-80
2024/01/25 08:31:02;;;;;;;1999.90;999.90;;;5.50;99.90;;;;;;5064318;28;20082;-78
2024/01/25 08:33:27;;;;;;;1999.90;999.90;;;5.60;99.90;;;;;;5066752;28;20230;-80
2024/01/25 08:35:53;;;;;;;1999.90;999.90;;;5.60;99.90;;;;;;5068072;28;20132;-76
2024/01/25 08:38:19;;;;;;;1999.90;999.90;;;5.70;99.90;;;;;;5065728;28;20029;-79
2024/01/25 08:40:45;;;;;;;1999.90;999.90;;;5.70;99.90;;;;;;5064718;28;20032;-78
2024/01/25 08:43:10;;;;;;;1999.90;999.90;;;5.90;99.90;;;;;;5046382;28;20722;-79
2024/01/25 08:45:37;;;;;;;1999.90;999.90;;;5.80;99.90;;;;;;5060188;28;20043;-78
2024/01/25 08:48:03;;;;;;;1999.90;999.90;;;6.00;99.30;;;;;;5065506;28;20094;-79
2024/01/25 08:50:29;;;;;;;1999.90;999.90;;;6.10;98.50;;;;;;5065232;28;20037;-78
2024/01/25 08:52:55;;;;;;;1999.90;999.90;;;6.30;97.00;;;;;;5065877;28;20036;-76
2024/01/25 08:55:21;;;;;;;1999.90;999.90;;;6.40;96.30;;;;;;5065399;28;20102;-79
2024/01/25 08:57:47;;;;;;;1999.90;999.90;;;6.60;97.50;;;;;;5064894;28;20063;-77
2024/01/25 09:00:14;;;;;;;1999.90;999.90;;;6.60;91.50;;;;;;5064133;28;20498;-77
2024/01/25 09:02:40;;;;;;;1999.90;999.90;;;6.70;91.20;;;;;;5066458;28;20028;-78
2024/01/25 09:05:06;;;;;;;1999.90;999.90;;;6.80;91.70;;;;;;5066637;28;20098;-77
2024/01/25 09:07:32;;;;;;;1999.90;999.90;;;6.90;91.00;;;;;;5064007;28;20032;-78
2024/01/25 09:09:58;;;;;;;1999.90;999.90;;;6.90;90.10;;;;;;5064522;28;20595;-77
2024/01/25 09:12:24;;;;;;;1999.90;999.90;;;7.10;90.20;;;;;;5067217;28;20584;-79
2024/01/25 09:14:50;;;;;;;1999.90;999.90;;;7.10;90.40;;;;;;5067243;28;20029;-77
2024/01/25 09:17:21;;;;;;;1999.90;999.90;;;7.20;89.60;;;;;;5065852;28;20013;-77
2024/01/25 09:19:48;;;;;;;1999.90;999.90;;;7.30;89.70;;;;;;5067708;28;20028;-77
2024/01/25 09:22:16;;;;;;;1999.90;999.90;;;7.40;88.60;;;;;;5065902;28;20479;-77
2024/01/25 09:24:41;;;;;;;1999.90;999.90;;;7.40;87.50;;;;;;5066056;28;20071;-81
2024/01/25 09:27:07;;;;;;;1999.90;999.90;;;7.30;86.80;;;;;;5063254;28;20893;-79
2024/01/25 09:29:33;;;;;;;1999.90;999.90;;;7.30;86.80;;;;;;5064518;28;20181;-78
2024/01/25 09:31:59;;;;;;;1999.90;999.90;;;7.30;87.80;;;;;;5062642;28;20028;-79
2024/01/25 09:34:25;;;;;;;1999.90;999.90;;;7.40;88.40;;;;;;5066589;28;20043;-76
2024/01/25 09:36:52;;;;;;;1999.90;999.90;;;7.70;88.30;;;;;;5062113;28;20032;-77
2024/01/25 09:39:17;;;;;;;1999.90;999.90;;;8.00;86.50;;;;;;5059413;28;20506;-77
2024/01/25 09:41:43;;;;;;;1999.90;999.90;;;8.10;86.30;;;;;;5064413;28;20036;-77
2024/01/25 09:44:10;;;;;;;1999.90;999.90;;;8.10;83.80;;;;;;5094844;28;20150;-78
2024/01/25 09:46:38;;;;;;;1999.90;999.90;;;8.10;83.30;;;;;;5062075;28;20029;-77
2024/01/25 09:49:03;;;;;;;1999.90;999.90;;;8.30;83.80;;;;;;5047204;28;20032;-78
2024/01/25 09:51:37;;;;;;;1999.90;999.90;;;8.50;82.60;;;;;;5065309;28;20033;-76
2024/01/25 09:54:05;;;;;;;1999.90;999.90;;;8.80;82.30;;;;;;5062842;28;20055;-76
2024/01/25 09:56:32;;;;;;;1999.90;999.90;;;9.00;81.90;;;;;;5096159;28;20039;-77
2024/01/25 09:58:59;;;;;;;1999.90;999.90;;;9.00;82.30;;;;;;5063231;28;20032;-77
2024/01/25 10:01:24;;;;;;;1999.90;999.90;;;8.90;82.90;;;;;;5063827;28;20028;-77
2024/01/25 10:03:50;;;;;;;1999.90;999.90;;;9.00;82.70;;;;;;5064972;28;20705;-76
2024/01/25 10:06:17;;;;;;;1999.90;999.90;;;9.40;82.40;;;;;;5063651;28;20121;-76
2024/01/25 10:08:43;;;;;;;1999.90;999.90;;;9.20;80.60;;;;;;5047495;28;20029;-77
2024/01/25 10:11:11;;;;;;;1999.90;999.90;;;9.30;79.40;;;;;;5061895;28;20024;-77
2024/01/25 10:13:50;;;;;;;1999.90;999.90;;;9.40;79.20;;;;;;5064700;28;20073;-77
2024/01/25 10:16:17;;;;;;;1999.90;999.90;;;9.60;78.30;;;;;;5061833;28;20085;-77
2024/01/25 10:18:45;;;;;;;1999.90;999.90;;;9.80;75.10;;;;;;5059840;28;20108;-76
2024/01/25 10:21:12;;;;;;;1999.90;999.90;;;9.70;74.60;;;;;;5063847;28;20029;-78
2024/01/25 10:23:39;;;;;;;1999.90;999.90;;;9.50;75.40;;;;;;5065248;28;20210;-76
2024/01/25 10:26:07;;;;;;;1999.90;999.90;;;9.50;74.10;;;;;;5063815;28;20029;-77
2024/01/25 10:28:33;;;;;;;1999.90;999.90;;;9.70;74.80;;;;;;5062807;28;20174;-78
2024/01/25 10:31:02;;;;;;;1999.90;999.90;;;9.80;73.80;;;;;;5064727;28;20690;-76
2024/01/25 10:33:28;;;;;;;1999.90;999.90;;;9.60;74.10;;;;;;5063351;28;20060;-77
2024/01/25 10:36:02;;;;;;;1999.90;999.90;;;9.40;71.60;;;;;;5063477;28;20029;-77
2024/01/25 10:38:32;;;;;;;1999.90;999.90;;;9.30;72.50;;;;;;5065657;28;20033;-77
2024/01/25 10:41:03;;;;;;;1999.90;999.90;;;9.10;72.70;;;;;;5064362;28;20117;-78
2024/01/25 10:43:32;;;;;;;1999.90;999.90;;;9.20;73.40;;;;;;5076238;28;20048;-77
2024/01/25 10:45:59;;;;;;;1999.90;999.90;;;9.20;73.10;;;;;;5063938;28;20543;-77
2024/01/25 10:48:26;;;;;;;1999.90;999.90;;;9.40;73.80;;;;;;5059466;28;20140;-76
2024/01/25 10:50:53;;;;;;;1999.90;999.90;;;9.30;73.60;;;;;;5067514;28;20021;-76
2024/01/25 10:53:20;;;;;;;1999.90;999.90;;;9.20;73.30;;;;;;5068738;28;20029;-76
2024/01/25 10:55:46;;;;;;;1999.90;999.90;;;9.10;75.20;;;;;;5066246;28;20037;-77
2024/01/25 10:58:16;;;;;;;1999.90;999.90;;;8.80;72.90;;;;;;5068672;28;20032;-77
2024/01/25 11:00:50;;;;;;;1999.90;999.90;;;8.60;73.70;;;;;;5067600;28;20036;-78
2024/01/25 11:03:18;;;;;;;1999.90;999.90;;;8.50;73.50;;;;;;5068386;28;20059;-76
2024/01/25 11:05:44;;;;;;;1999.90;999.90;;;8.70;74.20;;;;;;5065043;28;20059;-77
2024/01/25 11:08:21;;;;;;;1999.90;999.90;;;9.20;72.60;;;;;;5067614;28;20028;-77
2024/01/25 11:10:54;;;;;;;1999.90;999.90;;;9.30;73.80;;;;;;5096712;28;20024;-76
2024/01/25 11:13:27;;;;;;;1999.90;999.90;;;9.30;71.70;;;;;;5068699;28;20038;-76
2024/01/25 11:15:53;;;;;;;1999.90;999.90;;;9.20;69.80;;;;;;5066357;28;20044;-76
2024/01/25 11:18:19;;;;;;;1999.90;999.90;;;9.00;70.20;;;;;;5069485;28;20028;-80
2024/01/25 11:20:47;;;;;;;1999.90;999.90;;;8.90;71.20;;;;;;5064869;28;20041;-77
2024/01/25 11:23:16;;;;;;;1999.90;999.90;;;9.00;72.60;;;;;;5068641;28;20119;-77
2024/01/25 11:25:46;;;;;;;1999.90;999.90;;;8.90;72.50;;;;;;5069656;28;20024;-77
2024/01/25 11:28:14;;;;;;;1999.90;999.90;;;8.80;72.20;;;;;;5051360;28;20032;-76
2024/01/25 11:30:40;;;;;;;1999.90;999.90;;;8.70;72.80;;;;;;5065926;28;20502;-76
2024/01/25 11:33:09;;;;;;;1999.90;999.90;;;8.80;73.70;;;;;;5064431;28;20039;-79
2024/01/25 11:35:35;;;;;;;1999.90;999.90;;;8.80;74.50;;;;;;5066320;28;20090;-79
2024/01/25 11:38:01;;;;;;;1999.90;999.90;;;8.90;75.20;;;;;;5069033;28;20025;-78
2024/01/25 11:40:31;;;;;;;1999.90;999.90;;;8.90;73.40;;;;;;5067806;28;20032;-78
2024/01/25 11:42:57;;;;;;;1999.90;999.90;;;8.80;73.10;;;;;;5065425;28;20032;-78
2024/01/25 11:45:23;;;;;;;1999.90;999.90;;;8.80;73.70;;;;;;5063636;28;20561;-80
2024/01/25 11:47:49;;;;;;;1999.90;999.90;;;8.80;74.60;;;;;;5065360;28;20025;-79
2024/01/25 11:50:15;;;;;;;1999.90;999.90;;;8.80;75.00;;;;;;5064814;28;20024;-77
2024/01/25 11:52:41;;;;;;;1999.90;999.90;;;8.70;75.70;;;;;;5068825;28;20140;-79
2024/01/25 11:55:08;;;;;;;1999.90;999.90;;;8.70;75.30;;;;;;5065963;28;20036;-77
2024/01/25 11:57:40;;;;;;;1999.90;999.90;;;8.70;74.70;;;;;;5067890;28;20460;-77
2024/01/25 12:00:09;;;;;;;1999.90;999.90;;;8.80;75.90;;;;;;5067879;28;20025;-77
2024/01/25 12:02:38;;;;;;;1999.90;999.90;;;8.80;76.80;;;;;;5065857;28;20094;-79
2024/01/25 12:05:05;;;;;;;1999.90;999.90;;;9.00;76.10;;;;;;5067941;28;20052;-77